• Join FlightAware (Why Join?)
  • Login
  • US Flag 
05:36AM EDT


 

Airport Tracker/Info


-or-


 

Live Flight TrackerFlight Track Log ✈ AFL150 ✈ 20-Feb-2014 ✈ UUEE / SVO - MUHA / HAV

Flight Track Log - Related Links

Times and Time Zones

All times are in EST time to prevent confusion due to time zone crossing. See the AFL150 flight status page for this flight to view local times or setup timezone preferences in your user account.

Time Position Orientation Groundspeed Altitude Reporting Facility
EST Latitude Longitude Course Direction KTS MPH feet Rate Location/Type
04:33AM 56.1357 37.0981 307° West  Level Estimated
04:34AM 56.2035 36.9334 307° West  Level Estimated
04:35AM 56.2711 36.7681 306° West  Level Estimated
04:36AM 56.3385 36.6022 306° West  Level Estimated
04:37AM 56.4057 36.4357 306° West  Level Estimated
04:38AM 56.4726 36.2686 306° West  Level Estimated
04:39AM 56.5394 36.1010 306° West  Level Estimated
04:40AM 56.6059 35.9327 306° West  Level Estimated
04:41AM 56.6721 35.7639 306° West  Level Estimated
04:42AM 56.7382 35.5945 305° West  Level Estimated
04:43AM 56.8040 35.4244 305° West  Level Estimated
04:44AM 56.8696 35.2538 305° West  Level Estimated
04:45AM 56.9341 35.0848 305° West  Level Estimated
04:46AM 56.9983 34.9153 305° West  Level Estimated
04:47AM 57.0624 34.7451 305° West  Level Estimated
04:48AM 57.1262 34.5744 305° West  Level Estimated
04:49AM 57.1898 34.4030 304° West  Level Estimated
04:50AM 57.2531 34.2311 304° West  Level Estimated
04:51AM 57.3162 34.0586 304° West  Level Estimated
04:52AM 57.3791 33.8855 304° West  Level Estimated
04:53AM 57.4417 33.7118 304° West  Level Estimated
04:54AM 57.5041 33.5375 304° West  Level Estimated
04:55AM 57.5662 33.3627 304° West  Level Estimated
04:56AM 57.6281 33.1872 303° West  Level Estimated
04:57AM 57.6898 33.0111 303° West  Level Estimated
04:58AM 57.7512 32.8344 303° West  Level Estimated
04:59AM 57.8124 32.6571 303° West  Level Estimated
05:00AM 57.8733 32.4793 303° West  Level Estimated
05:01AM 57.9340 32.3008 303° West  Level Estimated
05:01AM 56.4977 31.7890 303° West 430 495 34,000  Level FlightAware ADS-B (EVDA / DGP)
05:02AM 56.5164 31.5544 278° West 431 496 34,000  Level FlightAware ADS-B (EVDA / DGP)
05:03AM 56.5336 31.3339 278° West 432 497 34,000  Level FlightAware ADS-B (EVDA / DGP)
05:04AM 56.5637 31.1287 285° West 429 494 34,000  Level FlightAware ADS-B (EVDA / DGP)
05:05AM 56.6166 30.9426 297° West 426 490 34,000  Level FlightAware ADS-B (EVDA / DGP)
05:06AM 56.6930 30.7711 309° West 425 489 34,000  Level FlightAware ADS-B (EVDA / DGP)
05:07AM 56.7606 30.6037 306° West 424 488 34,000  Level FlightAware ADS-B (EVDA / DGP)
05:08AM 56.8283 30.4244 305° West 425 489 34,000  Level FlightAware ADS-B (EVDA / DGP)
05:09AM 56.8929 30.2490 304° West 425 489 34,000  Level FlightAware ADS-B (EVDA / DGP)
05:10AM 56.9606 30.0643 304° West 426 490 34,000  Level FlightAware ADS-B (EVDA / DGP)
05:11AM 57.0248 29.8874 304° West 427 491 34,000  Level FlightAware ADS-B (EVDA / DGP)
05:12AM 57.0904 29.7053 304° West 425 489 34,000  Level FlightAware ADS-B (EVDA / DGP)
05:13AM 57.1555 29.5236 304° West 425 489 34,000  Level FlightAware ADS-B (EVDA / DGP)
05:14AM 57.2188 29.3456 303° West 425 489 34,000  Level FlightAware ADS-B (EVDA / DGP)
05:15AM 57.2828 29.1641 303° West 423 487 34,000  Level FlightAware ADS-B (EVDA / DGP)
05:16AM 57.3469 28.9813 303° West 424 488 34,000  Level FlightAware ADS-B (EVDA / DGP)
05:17AM 57.4111 28.7969 303° West 426 490 34,000  Level FlightAware ADS-B (EVDA / DGP)
05:18AM 57.4751 28.6116 303° West 429 494 34,000  Level FlightAware ADS-B (EVDA / DGP)
05:19AM 57.5382 28.4272 303° West 430 495 34,000  Level FlightAware ADS-B (EVDA / DGP)
05:20AM 57.6029 28.2371 302° West 430 495 34,000  Level FlightAware ADS-B (EVDA / DGP)
05:21AM 57.6651 28.0524 302° West 429 494 34,000  Level FlightAware ADS-B (EVDA / DGP)
05:22AM 57.7292 27.8611 302° West 428 493 34,000  Level FlightAware ADS-B (EVDA / DGP)
05:23AM 57.7915 27.6737 302° West 426 490 34,000  Level FlightAware ADS-B (EVDA / DGP)
05:24AM 57.8469 27.4819 299° West 426 490 34,000  Level FlightAware ADS-B (EVDA / DGP)
05:25AM 57.8883 27.2749 291° West 424 488 34,000  Level FlightAware ADS-B (EVDA / DGP)
05:26AM 57.9296 27.0703 291° West 424 488 34,000  Level FlightAware ADS-B (EVDA / DGP)
05:27AM 57.9705 26.8663 291° West 425 489 34,000  Level FlightAware ADS-B (EVDA / DGP)
05:28AM 58.0124 26.6537 291° West 426 490 34,000  Level FlightAware ADS-B (EVDA / DGP)
05:29AM 58.0536 26.4436 290° West 430 495 34,000  Level FlightAware ADS-B (EVDA / DGP)
05:30AM 58.0938 26.2353 290° West 429 494 34,000  Level FlightAware ADS-B (EVDA / DGP)
05:31AM 58.1345 26.0224 290° West 426 490 34,000  Level FlightAware ADS-B (EVDA / DGP)
05:32AM 58.1735 25.8159 290° West 425 489 34,000  Level FlightAware ADS-B (EVDA / DGP)
05:33AM 58.2130 25.6051 290° West 425 489 34,000  Level FlightAware ADS-B (EVDA / DGP)
05:34AM 58.2520 25.3950 290° West 426 490 34,000  Level FlightAware ADS-B (EVDA / DGP)
05:35AM 58.2895 25.1904 289° West 427 491 34,000  Level FlightAware ADS-B (EVDA / DGP)
05:36AM 58.3288 24.9730 289° West 427 491 34,000  Level FlightAware ADS-B (EVDA / DGP)
05:37AM 58.3288 24.9730 289° West 426 490 34,000  Level FlightAware ADS-B (EVDA / DGP)
05:38AM 58.4033 24.5540 289° West 423 487 34,000  Level FlightAware ADS-B (EVDA / DGP)
05:39AM 58.4271 24.4168 288° West 425 489 34,000  Level FlightAware ADS-B (EVDA / DGP)
05:42AM 58.4271 24.4168 296° West 425 489 34,000  Level FlightAware ADS-B (EVDA / DGP)
05:53AM 58.6772 22.6923 295° West 415 478 34,000  Level FlightAware ADS-B (ESKB)
05:58AM 59.0114 20.3599 294° West 403 464 34,000  Level FlightAware ADS-B (ESKB)
05:58AM 59.0340 20.2203 288° West 401 461 34,000  Level FlightAware ADS-B (ESKB)
05:59AM 59.0514 20.1129 288° West 401 461 34,000  Level FlightAware ADS-B (ESKB)
06:00AM 59.0787 19.9440 287° West 403 464 34,000  Level FlightAware ADS-B (ESKB)
06:00AM 59.0998 19.8110 287° West 404 465 34,000  Level FlightAware ADS-B (ESKB)
06:01AM 59.1215 19.6721 287° West 404 465 34,000  Level FlightAware ADS-B (ESKB)
06:02AM 59.1432 19.5327 287° West 404 465 34,000  Level FlightAware ADS-B (ESKB)
06:02AM 59.1655 19.3888 287° West 403 464 34,000  Level FlightAware ADS-B (ESKB)
06:03AM 59.1871 19.2503 287° West 404 465 34,000  Level FlightAware ADS-B (ESKB)
06:04AM 59.2086 19.1097 287° West 406 467 34,000  Level FlightAware ADS-B (ESKB)
06:05AM 59.2405 18.9007 287° West 403 464 34,000  Level FlightAware ADS-B (ESKB)
06:05AM 59.2612 18.7612 286° West 402 463 34,000  Level FlightAware ADS-B (ESKB)
06:06AM 59.2822 18.6204 286° West 401 461 34,000  Level FlightAware ADS-B (ESKB)
06:07AM 59.3027 18.4810 286° West 399 459 34,000  Level FlightAware ADS-B (ESKB)
06:07AM 59.3215 18.3521 286° West 396 456 34,000  Level FlightAware ADS-B (ESKB)
06:08AM 59.3426 18.2070 286° West 395 455 34,000  Level FlightAware ADS-B (ESKB)
06:09AM 59.3616 18.0755 286° West 394 453 34,000  Level FlightAware ADS-B (ESKB)
06:09AM 59.3811 17.9384 286° West 393 452 34,000  Level FlightAware ADS-B (ESKB)
06:10AM 59.4007 17.8001 286° West 391 450 34,000  Level FlightAware ADS-B (ESKB)
06:11AM 59.4170 17.6841 285° West 389 448 34,000  Level FlightAware ADS-B (ESKB)
06:11AM 59.4391 17.5258 285° West 387 445 34,000  Level FlightAware ADS-B (ESKB)
06:12AM 59.4586 17.3849 285° West 385 443 34,000  Level FlightAware ADS-B (ESKB)
06:13AM 59.4756 17.2603 285° West 384 442 34,000  Level FlightAware ADS-B (ESKB)
06:13AM 59.4948 17.1164 285° West 385 443 34,000  Level FlightAware ADS-B (ESKB)
06:14AM 59.5133 16.9789 285° West 385 443 34,000  Level FlightAware ADS-B (ESKB)
06:15AM 59.5294 16.8587 285° West 385 443 34,000  Level FlightAware ADS-B (ESKB)
06:15AM 59.5488 16.7117 285° West 384 442 34,000  Level FlightAware ADS-B (ESKB)
06:16AM 59.5662 16.5790 285° West 385 443 34,000  Level FlightAware ADS-B (ESKB)
06:17AM 59.5838 16.4429 284° West 386 444 34,000  Level FlightAware ADS-B (ESKB)
06:17AM 59.6018 16.3029 284° West 384 442 34,000  Level FlightAware ADS-B
06:18AM 59.6189 16.1696 284° West 386 444 34,000  Level FlightAware ADS-B (ESKB)
06:19AM 59.6340 16.0487 284° West 384 442 34,000  Level FlightAware ADS-B
06:19AM 59.6399 16.0023 284° West 384 442 34,000  Level FlightAware ADS-B
06:19AM 59.6468 15.9470 284° West 384 442 34,000  Level FlightAware ADS-B
06:20AM 59.6597 15.8428 284° West 384 442 34,000  Level FlightAware ADS-B
06:20AM 59.6724 15.7407 284° West 385 443 34,000  Level FlightAware ADS-B
06:21AM 59.6848 15.6390 284° West 386 444 34,000  Level FlightAware ADS-B
06:21AM 59.6978 15.5320 284° West 386 444 34,000  Level FlightAware ADS-B
06:22AM 59.7098 15.4330 283° West 385 443 34,000  Level FlightAware ADS-B
06:22AM 59.7224 15.3275 283° West 385 443 34,000  Level FlightAware ADS-B
06:23AM 59.7401 15.1788 283° West 384 442 34,000  Level FlightAware ADS-B
06:23AM 59.7530 15.0692 283° West 383 441 34,000  Level FlightAware ADS-B
06:24AM 59.7650 14.9662 283° West 382 440 34,000  Level FlightAware ADS-B
06:24AM 59.7772 14.8618 283° West 384 442 34,000  Level FlightAware ADS-B
06:25AM 59.7947 14.7094 283° West 384 442 34,000  Level FlightAware ADS-B
06:26AM 59.8065 14.6049 283° West 383 441 34,000  Level FlightAware ADS-B
06:26AM 59.8211 14.4576 281° West 381 438 34,000  Level FlightAware ADS-B
06:27AM 59.8313 14.3557 281° West 381 438 34,000  Level FlightAware ADS-B
06:27AM 59.8422 14.2459 281° West 381 438 34,000  Level FlightAware ADS-B
06:28AM 59.8586 14.0808 281° West 382 440 34,000  Level FlightAware ADS-B
06:29AM 59.8703 13.9614 281° West 383 441 34,000  Level FlightAware ADS-B
06:29AM 59.8812 13.8492 281° West 384 442 34,000  Level FlightAware ADS-B
06:30AM 59.8943 13.7128 281° West 384 442 34,000  Level FlightAware ADS-B
06:31AM 59.9083 13.5656 281° West 386 444 34,000  Level FlightAware ADS-B
06:31AM 59.9200 13.4399 281° West 387 445 34,000  Level FlightAware ADS-B
06:32AM 59.9353 13.2736 281° West 388 447 34,000  Level FlightAware ADS-B
06:33AM 59.9518 13.0922 280° West 386 444 34,000  Level FlightAware ADS-B
06:34AM 59.9640 12.9562 280° West 385 443 34,000  Level FlightAware ADS-B
06:34AM 59.9781 12.7977 280° West 386 444 34,000  Level FlightAware ADS-B
06:35AM 59.9912 12.6472 280° West 388 447 34,000  Level FlightAware ADS-B
06:36AM 60.0051 12.4848 280° West 388 447 34,000  Level FlightAware ADS-B
06:36AM 60.0189 12.3498 282° West 384 442 34,000  Level FlightAware ADS-B
06:38AM 60.0615 12.0624 287° West 379 436 34,000  Level FlightAware ADS-B
06:39AM 60.0869 11.8866 286° West 381 438 34,000  Level FlightAware ADS-B
06:39AM 60.1081 11.7390 286° West 381 438 34,000  Level FlightAware ADS-B
06:42AM 60.1811 11.2184 285° West 385 443 34,000  Level FlightAware ADS-B
06:45AM 60.2519 10.6739 285° West  Level Estimated
06:46AM 60.2799 10.4540 284° West  Level Estimated
06:47AM 60.3074 10.2338 284° West  Level Estimated
06:48AM 60.3346 10.0131 284° West  Level Estimated
06:49AM 60.3614 9.7921 284° West  Level Estimated
06:50AM 60.3878 9.5707 284° West  Level Estimated
06:51AM 60.4139 9.3490 283° West  Level Estimated
06:52AM 60.4396 9.1269 283° West  Level Estimated
06:53AM 60.4649 8.9044 283° West  Level Estimated
06:54AM 60.4899 8.6817 283° West  Level Estimated
06:55AM 60.5145 8.4585 283° West  Level Estimated
06:56AM 60.5387 8.2351 283° West  Level Estimated
06:57AM 60.5625 8.0113 282° West  Level Estimated
06:58AM 60.5860 7.7872 282° West  Level Estimated
06:59AM 60.6091 7.5627 282° West  Level Estimated
07:00AM 60.6318 7.3380 282° West  Level Estimated
07:01AM 60.6541 7.1129 282° West  Level Estimated
07:02AM 60.6761 6.8875 281° West  Level Estimated
07:03AM 60.6977 6.6618 281° West  Level Estimated
07:04AM 60.7188 6.4358 281° West  Level Estimated
07:05AM 60.7397 6.2095 281° West  Level Estimated
07:06AM 60.7601 5.9830 281° West  Level Estimated
07:07AM 60.7802 5.7561 280° West  Level Estimated
07:08AM 60.7998 5.5290 280° West  Level Estimated
07:09AM 60.8191 5.3015 280° West  Level Estimated
07:10AM 60.8380 5.0739 280° West  Level Estimated
07:11AM 60.8565 4.8459 280° West  Level Estimated
07:12AM 60.8747 4.6177 279° West  Level Estimated
07:13AM 60.8924 4.3892 279° West  Level Estimated
07:14AM 60.9098 4.1605 279° West  Level Estimated
07:15AM 60.9268 3.9315 279° West  Level Estimated
07:16AM 60.9433 3.7023 279° West  Level Estimated
07:17AM 60.9595 3.4728 278° West  Level Estimated
07:18AM 60.9753 3.2431 278° West  Level Estimated
07:19AM 60.9907 3.0132 278° West  Level Estimated
07:20AM 61.0057 2.7831 278° West  Level Estimated
07:21AM 61.0204 2.5528 278° West  Level Estimated
07:22AM 61.0346 2.3222 277° West  Level Estimated
07:23AM 61.0484 2.0915 277° West  Level Estimated
07:24AM 61.0619 1.8605 277° West  Level Estimated
07:25AM 61.0749 1.6293 277° West  Level Estimated
07:26AM 61.0876 1.3980 277° West  Level Estimated
07:27AM 61.0998 1.1665 276° West  Level Estimated
07:28AM 61.1117 0.9348 276° West  Level Estimated
07:29AM 61.1232 0.7029 276° West  Level Estimated
07:30AM 61.1342 0.4709 276° West  Level Estimated
07:31AM 61.1449 0.2387 276° West  Level Estimated
07:32AM 61.1552 0.0063 275° West  Level Estimated
07:33AM 61.1651 -0.2261 275° West  Level Estimated
07:34AM 61.1745 -0.4588 275° West  Level Estimated
07:35AM 61.1836 -0.6916 275° West  Level Estimated
07:36AM 61.1923 -0.9245 275° West  Level Estimated
07:37AM 61.2006 -1.1575 274° West  Level Estimated
07:38AM 61.2085 -1.3906 274° West  Level Estimated
07:39AM 61.2159 -1.6239 274° West  Level Estimated
07:40AM 61.2230 -1.8573 274° West  Level Estimated
07:41AM 61.2297 -2.0907 274° West  Level Estimated
07:42AM 61.2360 -2.3243 273° West  Level Estimated
07:43AM 61.2418 -2.5580 273° West  Level Estimated
07:44AM 61.2473 -2.7917 273° West  Level Estimated
07:45AM 61.2524 -3.0255 273° West  Level Estimated
07:46AM 61.2570 -3.2594 272° West  Level Estimated
07:47AM 61.2613 -3.4934 272° West  Level Estimated
07:48AM 61.2651 -3.7274 272° West  Level Estimated
07:49AM 61.2686 -3.9615 272° West  Level Estimated
07:50AM 61.2717 -4.1956 272° West  Level Estimated
07:51AM 61.2743 -4.4298 271° West  Level Estimated
07:52AM 61.2766 -4.6640 271° West  Level Estimated
07:53AM 61.2784 -4.8982 271° West  Level Estimated
07:54AM 61.2798 -5.1325 271° West  Level Estimated
07:55AM 61.2809 -5.3668 271° West  Level Estimated
07:56AM 61.2815 -5.6010 270° West  Level Estimated
07:57AM 61.2817 -5.8354 270° West  Level Estimated
07:58AM 61.2816 -6.0697 270° West  Level Estimated
07:59AM 61.2810 -6.3039 270° West  Level Estimated
08:00AM 61.2800 -6.5382 270° West  Level Estimated
08:01AM 61.2786 -6.7725 269° West  Level Estimated
08:02AM 61.2768 -7.0067 269° West  Level Estimated
08:03AM 61.2746 -7.2409 269° West  Level Estimated
08:04AM 61.2720 -7.4751 269° West  Level Estimated
08:05AM 61.2690 -7.7092 269° West  Level Estimated
08:06AM 61.2656 -7.9433 268° West  Level Estimated
08:07AM 61.2618 -8.1773 268° West  Level Estimated
08:08AM 61.2576 -8.4113 268° West  Level Estimated
08:09AM 61.2530 -8.6452 268° West  Level Estimated
08:10AM 61.2480 -8.8790 268° West  Level Estimated
08:11AM 61.2425 -9.1128 267° West  Level Estimated
08:12AM 61.2367 -9.3465 267° West  Level Estimated
08:13AM 61.2305 -9.5801 267° West  Level Estimated
08:14AM 61.2239 -9.8135 267° West  Level Estimated
08:15AM 61.2169 -10.0469 267° West  Level Estimated
08:16AM 61.2094 -10.2802 266° West  Level Estimated
08:17AM 61.2016 -10.5134 266° West  Level Estimated
08:18AM 61.1934 -10.7464 266° West  Level Estimated
08:19AM 61.1847 -10.9794 266° West  Level Estimated
08:20AM 61.1757 -11.2121 266° West  Level Estimated
08:21AM 61.1663 -11.4448 265° West  Level Estimated
08:22AM 61.1565 -11.6773 265° West  Level Estimated
08:23AM 61.1463 -11.9097 265° West  Level Estimated
08:24AM 61.1356 -12.1419 265° West  Level Estimated
08:25AM 61.1246 -12.3739 264° West  Level Estimated
08:26AM 61.1132 -12.6058 264° West  Level Estimated
08:27AM 61.1014 -12.8376 264° West  Level Estimated
08:28AM 61.0892 -13.0691 264° West  Level Estimated
08:29AM 61.0766 -13.3005 264° West  Level Estimated
08:30AM 61.0636 -13.5316 263° West  Level Estimated
08:31AM 61.0502 -13.7626 263° West  Level Estimated
08:32AM 61.0364 -13.9934 263° West  Level Estimated
08:33AM 61.0222 -14.2240 263° West  Level Estimated
08:34AM 61.0076 -14.4543 263° West  Level Estimated
08:35AM 60.9927 -14.6845 262° West  Level Estimated
08:36AM 60.9773 -14.9144 262° West  Level Estimated
08:37AM 60.9616 -15.1441 262° West  Level Estimated
08:38AM 60.9454 -15.3736 262° West  Level Estimated
08:39AM 60.9289 -15.6029 262° West  Level Estimated
08:40AM 60.9120 -15.8319 261° West  Level Estimated
08:41AM 60.8947 -16.0606 261° West  Level Estimated
08:42AM 60.8770 -16.2892 261° West  Level Estimated
08:43AM 60.8589 -16.5174 261° West  Level Estimated
08:44AM 60.8404 -16.7454 261° West  Level Estimated
08:45AM 60.8216 -16.9731 260° West  Level Estimated
08:46AM 60.8023 -17.2006 260° West  Level Estimated
08:47AM 60.7827 -17.4278 260° West  Level Estimated
08:48AM 60.7627 -17.6547 260° West  Level Estimated
08:49AM 60.7423 -17.8813 260° West  Level Estimated
08:50AM 60.7215 -18.1076 259° West  Level Estimated
08:51AM 60.7004 -18.3336 259° West  Level Estimated
08:52AM 60.6788 -18.5593 259° West  Level Estimated
08:53AM 60.6569 -18.7848 259° West  Level Estimated
08:54AM 60.6347 -19.0099 259° West  Level Estimated
08:55AM 60.6120 -19.2347 258° West  Level Estimated
08:56AM 60.5889 -19.4592 258° West  Level Estimated
08:57AM 60.5655 -19.6833 258° West  Level Estimated
08:58AM 60.5417 -19.9072 258° West  Level Estimated
08:59AM 60.5176 -20.1306 258° West  Level Estimated
09:00AM 60.4930 -20.3538 258° West  Level Estimated
09:01AM 60.4681 -20.5766 257° West  Level Estimated
09:02AM 60.4428 -20.7991 257° West  Level Estimated
09:03AM 60.4172 -21.0212 257° West  Level Estimated
09:04AM 60.3912 -21.2430 257° West  Level Estimated
09:05AM 60.3648 -21.4644 257° West  Level Estimated
09:06AM 60.3380 -21.6855 256° West  Level Estimated
09:07AM 60.3109 -21.9062 256° West  Level Estimated
09:08AM 60.2834 -22.1265 256° West  Level Estimated
09:09AM 60.2556 -22.3465 256° West  Level Estimated
09:10AM 60.2273 -22.5661 256° West  Level Estimated
09:11AM 60.1987 -22.7853 255° West  Level Estimated
09:12AM 60.1698 -23.0041 255° West  Level Estimated
09:13AM 60.1405 -23.2225 255° West  Level Estimated
09:14AM 60.1109 -23.4406 255° West  Level Estimated
09:15AM 60.0808 -23.6582 255° West  Level Estimated
09:16AM 60.0505 -23.8754 254° West  Level Estimated
09:17AM 60.0197 -24.0923 254° West  Level Estimated
09:18AM 59.9887 -24.3087 254° West  Level Estimated
09:19AM 59.9572 -24.5247 254° West  Level Estimated
09:20AM 59.9254 -24.7404 254° West  Level Estimated
09:21AM 59.8933 -24.9556 254° West  Level Estimated
09:22AM 59.8608 -25.1703 253° West  Level Estimated
09:23AM 59.8279 -25.3847 253° West  Level Estimated
09:24AM 59.7948 -25.5986 253° West  Level Estimated
09:25AM 59.7612 -25.8122 253° West  Level Estimated
09:26AM 59.7273 -26.0252 253° West  Level Estimated
09:27AM 59.6931 -26.2379 252° West  Level Estimated
09:28AM 59.6586 -26.4501 252° West  Level Estimated
09:29AM 59.6236 -26.6619 252° West  Level Estimated
09:30AM 59.5884 -26.8732 252° West  Level Estimated
09:31AM 59.5528 -27.0841 252° West  Level Estimated
09:32AM 59.5169 -27.2945 251° West  Level Estimated
09:33AM 59.4806 -27.5045 251° West  Level Estimated
09:34AM 59.4440 -27.7140 251° West  Level Estimated
09:35AM 59.4071 -27.9231 251° West  Level Estimated
09:36AM 59.3698 -28.1317 251° West  Level Estimated
09:37AM 59.3322 -28.3399 251° West  Level Estimated
09:38AM 59.2943 -28.5476 250° West  Level Estimated
09:39AM 59.2560 -28.7548 250° West  Level Estimated
09:40AM 59.2174 -28.9616 250° West  Level Estimated
09:41AM 59.1785 -29.1679 250° West  Level Estimated
09:42AM 59.1393 -29.3737 250° West  Level Estimated
09:43AM 59.0997 -29.5791 250° West  Level Estimated
09:44AM 59.0598 -29.7840 249° West  Level Estimated
09:45AM 59.0196 -29.9884 249° West  Level Estimated
09:46AM 58.9791 -30.1923 249° West  Level Estimated
09:47AM 58.9382 -30.3957 249° West  Level Estimated
09:48AM 58.8970 -30.5987 249° West  Level Estimated
09:49AM 58.8555 -30.8011 248° West  Level Estimated
09:50AM 58.8137 -31.0031 248° West  Level Estimated
09:51AM 58.7696 -31.2143 248° West  Level Estimated
09:52AM 58.7251 -31.4249 248° West  Level Estimated
09:53AM 58.6802 -31.6350 248° West  Level Estimated
09:54AM 58.6351 -31.8445 248° West  Level Estimated
09:55AM 58.5896 -32.0535 247° West  Level Estimated
09:56AM 58.5437 -32.2619 247° West  Level Estimated
09:57AM 58.4975 -32.4698 247° West  Level Estimated
09:58AM 58.4510 -32.6772 247° West  Level Estimated
09:59AM 58.4041 -32.8839 247° West  Level Estimated
10:00AM 58.3569 -33.0902 247° West  Level Estimated
10:01AM 58.3094 -33.2959 246° West  Level Estimated
10:02AM 58.2616 -33.5010 246° West  Level Estimated
10:03AM 58.2134 -33.7056 246° West  Level Estimated
10:04AM 58.1649 -33.9096 246° West  Level Estimated
10:05AM 58.1160 -34.1131 246° West  Level Estimated
10:06AM 58.0669 -34.3160 245° Southwest  Level Estimated
10:07AM 58.0174 -34.5184 245° Southwest  Level Estimated
10:08AM 57.9676 -34.7201 245° Southwest  Level Estimated
10:09AM 57.9175 -34.9214 245° Southwest  Level Estimated
10:10AM 57.8671 -35.1221 245° Southwest  Level Estimated
10:11AM 57.8163 -35.3222 245° Southwest  Level Estimated
10:12AM 57.7652 -35.5217 244° Southwest  Level Estimated
10:13AM 57.7139 -35.7207 244° Southwest  Level Estimated
10:14AM 57.6622 -35.9191 244° Southwest  Level Estimated
10:15AM 57.6102 -36.1169 244° Southwest  Level Estimated
10:16AM 57.5579 -36.3142 244° Southwest  Level Estimated
10:17AM 57.5053 -36.5109 244° Southwest  Level Estimated
10:18AM 57.4524 -36.7070 243° Southwest  Level Estimated
10:19AM 57.3991 -36.9026 243° Southwest  Level Estimated
10:20AM 57.3456 -37.0976 243° Southwest  Level Estimated
10:21AM 57.2918 -37.2920 243° Southwest  Level Estimated
10:22AM 57.2377 -37.4859 243° Southwest  Level Estimated
10:23AM 57.1833 -37.6792 243° Southwest  Level Estimated
10:24AM 57.1285 -37.8719 242° Southwest  Level Estimated
10:25AM 57.0735 -38.0640 242° Southwest  Level Estimated
10:26AM 57.0182 -38.2556 242° Southwest  Level Estimated
10:27AM 56.9626 -38.4466 242° Southwest  Level Estimated
10:28AM 56.9068 -38.6371 242° Southwest  Level Estimated
10:29AM 56.8506 -38.8270 242° Southwest  Level Estimated
10:30AM 56.7941 -39.0163 241° Southwest  Level Estimated
10:31AM 56.7374 -39.2050 241° Southwest  Level Estimated
10:32AM 56.6804 -39.3931 241° Southwest  Level Estimated
10:33AM 56.6230 -39.5807 241° Southwest  Level Estimated
10:34AM 56.5654 -39.7677 241° Southwest  Level Estimated
10:35AM 56.5076 -39.9542 241° Southwest  Level Estimated
10:36AM 56.4494 -40.1401 241° Southwest  Level Estimated
10:37AM 56.3910 -40.3254 240° Southwest  Level Estimated
10:38AM 56.3323 -40.5101 240° Southwest  Level Estimated
10:39AM 56.2733 -40.6943 240° Southwest  Level Estimated
10:40AM 56.2141 -40.8779 240° Southwest  Level Estimated
10:41AM 56.1545 -41.0609 240° Southwest  Level Estimated
10:42AM 56.0948 -41.2434 240° Southwest  Level Estimated
10:43AM 56.0347 -41.4253 239° Southwest  Level Estimated
10:44AM 55.9744 -41.6066 239° Southwest  Level Estimated
10:44AM 63.1500 -54.8667 239° Southwest 250 288 34,000  Level Gander Center
10:45AM 55.9138 -41.7874 239° Southwest  Level Estimated
10:45AM 63.1167 -55.0833 251° West 410 472 34,000  Level Gander Center
10:46AM 55.8529 -41.9676 239° Southwest  Level Estimated
10:46AM 63.0500 -55.3667 243° Southwest 430 495 34,000  Level Gander Center
10:47AM 55.7918 -42.1472 239° Southwest  Level Estimated
10:48AM 55.7304 -42.3263 239° Southwest  Level Estimated
10:48AM 62.9500 -55.8167 244° Southwest 430 495 34,000  Level Gander Center
10:49AM 55.6660 -42.5127 239° Southwest  Level Estimated
10:49AM 62.9000 -56.0500 245° Southwest 430 495 34,000  Level Gander Center
10:50AM 62.8167 -56.2833 232° Southwest 430 495 34,000  Level Gander Center
10:51AM 62.7667 -56.4667 239° Southwest 440 506 34,000  Level Gander Center
10:53AM 62.6167 -56.9167 234° Southwest 440 506 34,000  Level Gander Center
10:54AM 62.5500 -57.1500 238° Southwest 440 506 34,000  Level Gander Center
10:55AM 62.4833 -57.3667 236° Southwest 430 495 34,000  Level Gander Center
10:55AM 62.4333 -57.4333 212° Southwest 430 495 34,000  Level Montreal Center
10:56AM 62.3833 -57.6500 244° Southwest 440 506 34,000  Level Montreal Center
10:58AM 62.2667 -58.0333 237° Southwest 430 495 34,000  Level Gander Center
10:59AM 62.2333 -58.2167 249° West 430 495 34,000  Level Gander Center
10:59AM 62.1833 -58.2833 212° Southwest 430 495 34,000  Level Montreal Center
11:00AM 62.1000 -58.4833 228° Southwest 430 495 34,000  Level Montreal Center
11:01AM 62.0500 -58.7000 244° Southwest 430 495 34,000  Level Montreal Center
11:02AM 61.9667 -58.9167 231° Southwest 430 495 34,000  Level Montreal Center
11:03AM 61.9000 -59.1000 232° Southwest 430 495 34,000  Level Montreal Center
11:04AM 61.8333 -59.3167 237° Southwest 430 495 34,000  Level Montreal Center
11:05AM 61.7667 -59.5333 237° Southwest 430 495 34,000  Level Montreal Center
11:06AM 61.6833 -59.7167 226° Southwest 430 495 34,000  Level Montreal Center
11:07AM 61.6333 -59.9333 244° Southwest 430 495 34,000  Level Montreal Center
11:08AM 61.5500 -60.1500 231° Southwest 430 495 34,000  Level Montreal Center
11:09AM 61.4833 -60.3333 233° Southwest 430 495 34,000  Level Montreal Center
11:10AM 61.4000 -60.5500 231° Southwest 430 495 34,000  Level Montreal Center
11:11AM 61.3333 -60.7167 230° Southwest 430 495 34,000  Level Montreal Center
11:12AM 61.2667 -60.9333 237° Southwest 430 495 34,000  Level Montreal Center
11:13AM 61.2000 -61.1500 238° Southwest 430 495 34,000  Level Montreal Center
11:14AM 61.1333 -61.3167 230° Southwest 430 495 34,000  Level Montreal Center
11:15AM 61.0500 -61.5333 232° Southwest 420 483 34,000  Level Montreal Center
11:16AM 60.9833 -61.7333 236° Southwest 410 472 34,000  Level Montreal Center
11:17AM 60.9000 -61.9167 227° Southwest 420 483 34,000  Level Montreal Center
11:18AM 60.8333 -62.1167 236° Southwest 430 495 34,000  Level Montreal Center
11:19AM 60.7500 -62.3333 232° Southwest 440 506 34,000  Level Montreal Center
11:21AM 60.6500 -62.6667 239° Southwest 440 506 34,000  Level Gander Center
11:21AM 60.6000 -62.7333 213° Southwest 430 495 34,000  Level Montreal Center
11:22AM 60.5167 -62.9000 225° Southwest 430 495 34,000  Level Montreal Center
11:23AM 60.4500 -63.1000 236° Southwest 430 495 34,000  Level Montreal Center
11:24AM 60.3667 -63.3167 232° Southwest 430 495 34,000  Level Montreal Center
11:25AM 60.2833 -63.5167 230° Southwest 440 506 34,000  Level Montreal Center
11:26AM 60.2167 -63.7167 236° Southwest 440 506 34,000  Level Montreal Center
11:27AM 60.1333 -63.8833 225° Southwest 440 506 34,000  Level Montreal Center
11:28AM 60.0667 -64.0667 234° Southwest 440 506 34,000  Level Montreal Center
11:29AM 59.9833 -64.2667 230° Southwest 440 506 34,000  Level Montreal Center
11:30AM 59.9167 -64.4667 236° Southwest 440 506 34,000  Level Montreal Center
11:31AM 59.8333 -64.6333 225° Southwest 440 506 34,000  Level Montreal Center
11:32AM 59.7500 -64.8333 230° Southwest 450 518 34,000  Level Montreal Center
11:33AM 59.6667 -65.0167 228° Southwest 440 506 34,000  Level Montreal Center
11:34AM 59.5833 -65.2167 231° Southwest 440 506 34,000  Level Montreal Center
11:35AM 59.5000 -65.3667 222° Southwest 440 506 34,000  Level Montreal Center
11:36AM 59.4333 -65.5667 237° Southwest 450 518 34,000  Level Montreal Center
11:37AM 59.3333 -65.7500 223° Southwest 450 518 34,000  Level Montreal Center
11:38AM 59.2500 -65.9500 231° Southwest 450 518 34,000  Level Montreal Center
11:39AM 59.1667 -66.1333 228° Southwest 450 518 34,000  Level Montreal Center
11:40AM 59.1000 -66.3167 235° Southwest 450 518 34,000  Level Montreal Center
11:41AM 59.0000 -66.5000 223° Southwest 450 518 34,000  Level Montreal Center
11:42AM 58.9167 -66.7000 231° Southwest 450 518 34,000  Level Montreal Center
11:43AM 58.8333 -66.8500 223° Southwest 450 518 34,000  Level Montreal Center
11:44AM 58.7500 -67.0333 229° Southwest 450 518 34,000  Level Montreal Center
11:45AM 58.6667 -67.2167 229° Southwest 450 518 34,000  Level Montreal Center
11:46AM 58.5833 -67.4000 229° Southwest 450 518 34,000  Level Montreal Center
11:47AM 58.5000 -67.5833 229° Southwest 450 518 34,000  Level Montreal Center
11:48AM 58.4167 -67.7667 229° Southwest 450 518 34,000  Level Montreal Center
11:49AM 58.3333 -67.9500 229° Southwest 460 529 34,000  Level Montreal Center
11:50AM 58.2333 -68.1167 221° Southwest 460 529 34,000  Level Montreal Center
11:51AM 58.1667 -68.3000 235° Southwest 470 541 34,000  Level Montreal Center
11:52AM 58.0833 -68.4167 217° Southwest 500 575 34,000  Level Montreal Center
11:53AM 57.9833 -68.5667 219° Southwest 460 529 34,000  Level Montreal Center
11:54AM 57.8833 -68.7167 219° Southwest 460 529 34,000  Level Montreal Center
11:55AM 57.7667 -68.8333 208° Southwest 460 529 34,000  Level Montreal Center
11:56AM 57.6833 -68.9667 221° Southwest 460 529 34,000  Level Montreal Center
11:57AM 57.5667 -69.1167 215° Southwest 460 529 34,000  Level Montreal Center
11:58AM 57.4500 -69.2667 215° Southwest 460 529 34,000  Level Montreal Center
11:59AM 57.3667 -69.4000 221° Southwest 460 529 34,000  Level Montreal Center
12:00PM 57.2500 -69.5500 215° Southwest 460 529 34,000  Level Montreal Center
12:01PM 57.1333 -69.7000 215° Southwest 460 529 34,000  Level Montreal Center
12:02PM 57.0500 -69.8333 221° Southwest 460 529 34,000  Level Montreal Center
12:03PM 56.9333 -69.9500 209° Southwest 460 529 34,000  Level Montreal Center
12:04PM 56.8333 -70.0833 216° Southwest 460 529 34,000  Level Montreal Center
12:05PM 56.7333 -70.2167 216° Southwest 460 529 34,000  Level Montreal Center
12:06PM 56.6167 -70.3667 215° Southwest 460 529 34,000  Level Montreal Center
12:07PM 56.5167 -70.5000 216° Southwest 470 541 34,000  Level Montreal Center
12:08PM 56.4000 -70.6333 212° Southwest 470 541 34,000  Level Montreal Center
12:09PM 56.3000 -70.7667 217° Southwest 470 541 34,000  Level Montreal Center
12:10PM 56.1833 -70.9167 216° Southwest 470 541 34,000  Level Montreal Center
12:11PM 56.0667 -71.0500 213° Southwest 470 541 34,000  Level Montreal Center
12:12PM 55.9500 -71.1500 206° Southwest 460 529 34,000  Level Montreal Center
12:13PM 55.8667 -71.2833 222° Southwest 470 541 34,000  Level Montreal Center
12:14PM 55.7500 -71.4167 213° Southwest 470 541 34,000  Level Montreal Center
12:15PM 55.6333 -71.5500 213° Southwest 470 541 34,000  Level Montreal Center
12:16PM 55.5333 -71.6833 217° Southwest 470 541 34,000  Level Montreal Center
12:17PM 55.4167 -71.8000 210° Southwest 470 541 34,000  Level Montreal Center
12:18PM 55.3167 -71.9333 217° Southwest 470 541 34,000  Level Montreal Center
12:19PM 55.2000 -72.0333 206° Southwest 470 541 34,000  Level Montreal Center
12:20PM 55.1000 -72.1667 217° Southwest 470 541 34,000  Level Montreal Center
12:21PM 54.9833 -72.3000 213° Southwest 470 541 34,000  Level Montreal Center
12:22PM 54.8667 -72.4167 210° Southwest 470 541 34,000  Level Montreal Center
12:23PM 54.7500 -72.5500 213° Southwest 470 541 34,000  Level Montreal Center
12:24PM 54.6500 -72.6667 214° Southwest 470 541 34,000  Level Montreal Center
12:25PM 54.5333 -72.8000 214° Southwest 470 541 34,000  Level Montreal Center
12:26PM 54.4333 -72.9167 214° Southwest 470 541 34,000  Level Montreal Center
12:27PM 54.3167 -73.0500 214° Southwest 470 541 34,000  Level Montreal Center
12:28PM 54.2000 -73.1667 210° Southwest 470 541 34,000  Level Montreal Center
12:29PM 54.0833 -73.3000 214° Southwest 470 541 34,000  Level Montreal Center
12:30PM 53.9833 -73.4167 214° Southwest 460 529 34,000  Level Montreal Center
12:31PM 53.8667 -73.5333 211° Southwest 470 541 34,000  Level Montreal Center
12:32PM 53.7667 -73.6333 211° Southwest 460 529 34,000  Level Montreal Center
12:33PM 53.6333 -73.7500 207° Southwest 470 541 34,000  Level Montreal Center
12:34PM 53.5167 -73.8333 203° Southwest 460 529 34,000  Level Montreal Center
12:35PM 53.4000 -73.9500 211° Southwest 470 541 34,000  Level Montreal Center
12:36PM 53.2833 -74.0500 207° Southwest 470 541 34,000  Level Montreal Center
12:37PM 53.1667 -74.1333 203° Southwest 460 529 34,000  Level Montreal Center
12:38PM 53.0500 -74.2500 211° Southwest 460 529 34,000  Level Montreal Center
12:39PM 52.9500 -74.3500 211° Southwest 470 541 34,000  Level Montreal Center
12:40PM 52.8333 -74.4333 203° Southwest 470 541 34,000  Level Montreal Center
12:41PM 52.7167 -74.5167 203° Southwest 470 541 34,000  Level Montreal Center
12:42PM 52.6000 -74.6333 211° Southwest 470 541 34,000  Level Montreal Center
12:43PM 52.4833 -74.7167 204° Southwest 470 541 34,000  Level Montreal Center
12:44PM 52.3500 -74.8000 201° Southwest 470 541 34,000  Level Montreal Center
12:45PM 52.2333 -74.9000 208° Southwest 460 529 34,000  Level Montreal Center
12:46PM 52.1000 -75.0000 205° Southwest 470 541 34,000  Level Montreal Center
12:47PM 51.9833 -75.0833 204° Southwest 480 552 34,000  Level Montreal Center
12:48PM 51.8667 -75.1667 204° Southwest 470 541 34,000  Level Montreal Center
12:49PM 51.7500 -75.2833 212° Southwest 470 541 34,000  Level Montreal Center
12:50PM 51.6333 -75.3667 204° Southwest 470 541 34,000  Level Montreal Center
12:51PM 51.5167 -75.4500 204° Southwest 470 541 34,000 720 Level Montreal Center
12:52PM 51.4000 -75.5667 212° Southwest 460 529 35,500 960 Climbing Montreal Center
12:53PM 51.2833 -75.6500 204° Southwest 450 518 36,000 240 Climbing Montreal Center
12:54PM 51.1667 -75.7167 200° South 450 518 36,000  Level Montreal Center
12:55PM 51.0667 -75.8000 208° Southwest 450 518 36,000  Level Montreal Center
12:56PM 50.9500 -75.8833 204° Southwest 450 518 36,000  Level Montreal Center
12:57PM 50.8333 -75.9667 204° Southwest 450 518 36,000  Level Montreal Center
12:58PM 50.7167 -76.0667 208° Southwest 450 518 36,000  Level Montreal Center
12:59PM 50.6000 -76.1500 204° Southwest 450 518 36,000  Level Montreal Center
01:00PM 50.5000 -76.2333 208° Southwest 450 518 36,000  Level Montreal Center
01:01PM 50.3833 -76.3167 204° Southwest 450 518 36,000  Level Montreal Center
01:02PM 50.2667 -76.3833 200° South 450 518 36,000  Level Montreal Center
01:03PM 50.1500 -76.4667 205° Southwest 450 518 36,000  Level Montreal Center
01:04PM 50.0333 -76.5500 205° Southwest 440 506 36,000  Level Montreal Center
01:05PM 49.9167 -76.6500 209° Southwest 440 506 36,000  Level Montreal Center
01:06PM 49.8000 -76.7167 200° South 440 506 36,000  Level Montreal Center
01:07PM 49.6833 -76.8000 205° Southwest 440 506 36,000  Level Montreal Center
01:08PM 49.5833 -76.8667 203° Southwest 440 506 36,000  Level Montreal Center
01:09PM 49.4667 -76.9500 205° Southwest 430 495 36,000  Level Montreal Center
01:10PM 49.3500 -77.0167 200° South 460 529 36,000  Level Montreal Center
01:11PM 49.2500 -77.1000 209° Southwest 430 495 36,000  Level Montreal Center
01:12PM 49.1500 -77.1667 204° Southwest 430 495 36,000  Level Montreal Center
01:13PM 49.0333 -77.2500 205° Southwest 440 506 36,000  Level Montreal Center
01:14PM 48.9000 -77.3167 198° South 430 495 36,000  Level Montreal Center
01:15PM 48.8000 -77.4000 209° Southwest 430 495 36,000  Level Montreal Center
01:16PM 48.7000 -77.4667 204° Southwest 440 506 36,000  Level Montreal Center
01:17PM 48.5833 -77.5667 210° Southwest 440 506 36,000  Level Montreal Center
01:18PM 48.4667 -77.6333 201° Southwest 440 506 36,000  Level Montreal Center
01:19PM 48.3500 -77.7167 205° Southwest 440 506 36,000  Level Montreal Center
01:20PM 48.2500 -77.7833 204° Southwest 430 495 36,000  Level Montreal Center
01:21PM 48.1500 -77.8500 204° Southwest 430 495 36,000  Level Montreal Center
01:22PM 48.0333 -77.9000 196° South 430 495 36,000  Level Montreal Center
01:23PM 47.9000 -77.9667 199° South 430 495 36,000  Level Montreal Center
01:24PM 47.8000 -78.0500 209° Southwest 420 483 36,000  Level Montreal Center
01:25PM 47.7000 -78.1167 204° Southwest 410 472 36,000  Level Montreal Center
01:26PM 47.5833 -78.1500 191° South 410 472 36,000  Level Montreal Center
01:27PM 47.4833 -78.2333 209° Southwest 410 472 36,000  Level Montreal Center
01:28PM 47.3833 -78.3000 204° Southwest 410 472 36,000  Level Montreal Center
01:29PM 47.2667 -78.3500 196° South 400 460 36,000  Level Montreal Center
01:30PM 47.1667 -78.4167 204° Southwest 400 460 36,000  Level Montreal Center
01:36PM 46.5765 -78.7330 204° Southwest 389 448 36,000  Level FlightAware ADS-B (CYYZ)
01:36PM 46.5315 -78.7578 201° Southwest 388 447 36,000  Level FlightAware ADS-B (CYYZ)
01:37PM 46.4725 -78.7902 201° Southwest 386 444 36,000  Level FlightAware ADS-B (CYYZ)
01:37PM 46.4255 -78.8160 201° Southwest 384 442 36,000  Level FlightAware ADS-B (CYYZ)
01:38PM 46.3732 -78.8447 201° Southwest 384 442 36,000  Level FlightAware ADS-B (CYYZ)
01:38PM 46.3234 -78.8721 201° Southwest 385 443 36,000  Level FlightAware ADS-B (CYYZ)
01:39PM 46.2732 -78.8996 201° Southwest 385 443 36,000  Level FlightAware ADS-B (CYYZ)
01:39PM 46.2259 -78.9254 201° Southwest 383 441 36,000  Level FlightAware ADS-B (CYYZ)
01:40PM 46.1742 -78.9535 201° Southwest 382 440 36,000  Level FlightAware ADS-B (CYYZ)
01:40PM 46.1251 -78.9801 201° Southwest 381 438 36,000  Level FlightAware ADS-B (CYYZ)
01:41PM 46.0763 -79.0065 201° Southwest 381 438 36,000  Level FlightAware ADS-B (CYYZ)
01:41PM 46.0261 -79.0337 201° Southwest 379 436 36,000  Level FlightAware ADS-B (CYYZ)
01:42PM 45.9777 -79.0597 201° Southwest 377 434 36,000  Level FlightAware ADS-B (CYYZ)
01:42PM 45.9279 -79.0865 201° Southwest 375 432 36,000  Level FlightAware ADS-B (CYYZ)
01:43PM 45.8807 -79.1120 201° Southwest 375 432 36,000  Level FlightAware ADS-B (CYYZ)
01:43PM 45.8317 -79.1382 201° Southwest 375 432 36,000  Level FlightAware ADS-B (CYYZ)
01:44PM 45.7831 -79.1645 201° Southwest 376 433 36,000  Level FlightAware ADS-B (CYYZ)
01:44PM 45.7356 -79.1899 201° Southwest 379 436 36,000  Level FlightAware ADS-B (CYYZ)
01:45PM 45.6871 -79.2159 201° Southwest 382 440 36,000  Level FlightAware ADS-B (CYYZ)
01:45PM 45.6355 -79.2435 201° Southwest 385 443 36,000  Level FlightAware ADS-B (CYYZ)
01:46PM 45.5856 -79.2700 200° South 387 445 36,000  Level FlightAware ADS-B (CYYZ)
01:46PM 45.5352 -79.2968 200° South 389 448 36,000  Level FlightAware ADS-B (CYYZ)
01:47PM 45.4867 -79.3224 200° South 390 449 36,000  Level FlightAware ADS-B (CYYZ)
01:47PM 45.4335 -79.3505 200° South 390 449 36,000  Level FlightAware ADS-B (CYYZ)
01:48PM 45.3918 -79.3726 200° South 390 449 36,000  Level FlightAware ADS-B (CYYZ)
01:48PM 45.3327 -79.4037 200° South 388 447 36,000  Level FlightAware ADS-B (CYYZ)
01:49PM 45.2849 -79.4286 200° South 385 443 36,000  Level FlightAware ADS-B (CYYZ)
01:49PM 45.2329 -79.4558 200° South 384 442 36,000  Level FlightAware ADS-B (CYYZ)
01:50PM 45.1854 -79.4807 200° South 385 443 36,000  Level FlightAware ADS-B (CYYZ)
01:50PM 45.1331 -79.5083 200° South 387 445 36,000  Level FlightAware ADS-B (CYYZ)
01:51PM 45.0829 -79.5345 200° South 390 449 36,000  Level FlightAware ADS-B (CYYZ)
01:51PM 45.0323 -79.5610 200° South 393 452 36,000  Level FlightAware ADS-B (CYYZ)
01:52PM 44.9988 -79.5784 200° South 394 453 36,000  Level FlightAware ADS-B (CYOW)
01:52PM 44.9805 -79.5879 200° South 396 456 36,000  Level FlightAware ADS-B (CYYZ)
01:52PM 44.9446 -79.6065 200° South 396 456 36,000  Level FlightAware ADS-B (CYOW)
01:52PM 44.9299 -79.6142 200° South 397 457 36,000  Level FlightAware ADS-B (CYYZ)
01:53PM 44.8770 -79.6416 200° South 398 458 36,000  Level FlightAware ADS-B (CYYZ)
01:53PM 44.8254 -79.6683 200° South 399 459 36,000  Level FlightAware ADS-B (CYYZ)
01:53PM 44.7937 -79.6846 200° South 398 458 36,000  Level FlightAware ADS-B (CYKZ)
01:54PM 44.7734 -79.6952 200° South 399 459 36,000  Level FlightAware ADS-B (CYYZ)
01:54PM 44.7218 -79.7215 200° South 399 459 36,000  Level FlightAware ADS-B (CYYZ)
01:54PM 44.7140 -79.7256 200° South 398 458 36,000  Level FlightAware ADS-B (CYKZ)
01:55PM 44.6702 -79.7480 200° South 398 458 36,000  Level FlightAware ADS-B (CYYZ)
01:55PM 44.6371 -79.7649 200° South 397 457 36,000  Level FlightAware ADS-B (CYKZ)
01:55PM 44.6184 -79.7746 200° South 397 457 36,000  Level FlightAware ADS-B (CYYZ)
01:55PM 44.6390 -79.7640 20° North 396 456 36,000  Level FlightAware ADS-B (CYKF)
01:56PM 44.5692 -79.8059 203° Southwest 388 447 36,000  Level FlightAware ADS-B (CYYZ)
01:56PM 44.5411 -79.8288 210° Southwest 381 438 36,000  Level FlightAware ADS-B (CYKZ)
01:56PM 44.4946 -79.8715 213° Southwest 380 437 36,000  Level FlightAware ADS-B (CYYZ)
01:57PM 44.4815 -79.8836 213° Southwest 379 436 36,000  Level FlightAware ADS-B (CYKZ)
01:57PM 44.4503 -79.9121 213° Southwest 380 437 36,000  Level FlightAware ADS-B (CYYZ)
01:57PM 44.4631 -79.9004 33° Northeast 379 436 36,000  Level FlightAware ADS-B (CYKF)
01:58PM 44.4062 -79.9518 213° Southwest 381 438 36,000  Level FlightAware ADS-B (CYYZ)
01:58PM 44.4245 -79.9354 33° Northeast 381 438 36,000  Level FlightAware ADS-B (CYKF)
01:58PM 44.3635 -79.9903 213° Southwest 382 440 36,000  Level FlightAware ADS-B (CYYZ)
01:58PM 44.3339 -80.0168 213° Southwest 382 440 36,000  Level FlightAware ADS-B (CYKZ)
01:58PM 44.3174 -80.0316 213° Southwest 384 442 36,000  Level FlightAware ADS-B (CYYZ)
01:59PM 44.2845 -80.0612 213° Southwest 382 440 36,000  Level FlightAware ADS-B (CYKF)
01:59PM 44.2738 -80.0708 213° Southwest 383 441 36,000  Level FlightAware ADS-B (CYYZ)
01:59PM 44.2288 -80.1109 213° Southwest 382 440 36,000  Level FlightAware ADS-B (CYYZ)
02:00PM 44.1868 -80.1483 213° Southwest 384 442 36,000  Level FlightAware ADS-B (CYYZ)
02:00PM 44.1691 -80.1641 213° Southwest 384 442 36,000  Level FlightAware ADS-B (CYKZ)
02:00PM 44.1392 -80.1907 213° Southwest 385 443 36,000  Level FlightAware ADS-B (CYYZ)
02:01PM 44.1118 -80.2152 213° Southwest 385 443 36,000  Level FlightAware ADS-B (CYKZ)
02:01PM 44.0942 -80.2308 213° Southwest 386 444 36,000  Level FlightAware ADS-B (CYYZ)
02:01PM 44.0493 -80.2706 213° Southwest 388 447 36,000  Level FlightAware ADS-B (CYYZ)
02:02PM 44.0050 -80.3097 212° Southwest 390 449 36,000  Level FlightAware ADS-B (CYYZ)
02:02PM 44.0054 -80.3094 29° Northeast 389 448 36,000  Level FlightAware ADS-B (CYKF)
02:03PM 43.9578 -80.3514 212° Southwest 391 450 36,000  Level FlightAware ADS-B (CYYZ)
02:03PM 43.9324 -80.3738 212° Southwest 390 449 36,000  Level FlightAware ADS-B (CYKF)
02:03PM 43.9123 -80.3915 212° Southwest 391 450 36,000  Level FlightAware ADS-B (CYYZ)
02:03PM 43.8669 -80.4315 212° Southwest 392 451 36,000  Level FlightAware ADS-B (CYYZ)
02:04PM 43.8220 -80.4710 212° Southwest 392 451 36,000  Level FlightAware ADS-B (CYYZ)
02:04PM 43.8057 -80.4853 212° Southwest 392 451 36,000  Level FlightAware ADS-B (CYKF)
02:05PM 43.7750 -80.5122 212° Southwest 393 452 36,000  Level FlightAware ADS-B (CYYZ)
02:05PM 43.7433 -80.5401 212° Southwest 393 452 36,000  Level FlightAware ADS-B (CYKF)
02:05PM 43.7292 -80.5524 212° Southwest 394 453 36,000  Level FlightAware ADS-B (CYYZ)
02:05PM 43.6977 -80.5800 212° Southwest 395 455 36,000  Level FlightAware ADS-B (CYHM)
02:06PM 43.6829 -80.5930 212° Southwest 396 456 36,000  Level FlightAware ADS-B (CYYZ)
02:06PM 43.6384 -80.6318 212° Southwest 396 456 36,000  Level FlightAware ADS-B (CYYZ)
02:06PM 43.5916 -80.6725 212° Southwest 397 457 36,000  Level FlightAware ADS-B (CYYZ)
02:07PM 43.6012 -80.6642 32° Northeast 396 456 36,000  Level FlightAware ADS-B (CYKF)
02:07PM 43.5437 -80.7142 212° Southwest 397 457 36,000  Level FlightAware ADS-B (CYYZ)
02:07PM 43.5393 -80.7180 212° Southwest 396 456 36,000  Level FlightAware ADS-B (CYHM)
02:08PM 43.4978 -80.7540 212° Southwest 397 457 36,000  Level FlightAware ADS-B (CYYZ)
02:08PM 43.4655 -80.7820 212° Southwest 395 455 36,000  Level FlightAware ADS-B (CYKF)
02:08PM 43.4524 -80.7934 212° Southwest 396 456 36,000  Level FlightAware ADS-B (CYYZ)
02:09PM 43.4047 -80.8346 212° Southwest 395 455 36,000  Level FlightAware ADS-B (CYYZ)
02:09PM 43.3589 -80.8740 212° Southwest 394 453 36,000  Level FlightAware ADS-B (CYYZ)
02:09PM 43.3638 -80.8698 32° Northeast 393 452 36,000  Level FlightAware ADS-B (CYKZ)
02:10PM 43.3126 -80.9138 212° Southwest 394 453 36,000  Level FlightAware ADS-B (CYYZ)
02:10PM 43.3205 -80.9071 32° Northeast 393 452 36,000  Level FlightAware ADS-B (CYKF)
02:10PM 43.2668 -80.9533 212° Southwest 393 452 36,000  Level FlightAware ADS-B (CYYZ)
02:10PM 43.2595 -80.9595 212° Southwest 392 451 36,000  Level FlightAware ADS-B (CYKF)
02:10PM 43.2280 -80.9865 212° Southwest 393 452 36,000  Level FlightAware ADS-B (CYYZ)
02:11PM 43.1942 -81.0155 212° Southwest 392 451 36,000  Level FlightAware ADS-B (CYKF)
02:11PM 43.1744 -81.0324 212° Southwest 393 452 36,000  Level FlightAware ADS-B (CYYZ)
02:11PM 43.1306 -81.0699 212° Southwest 392 451 36,000  Level FlightAware ADS-B (CYKZ)
02:12PM 43.1299 -81.0705 213° Southwest 393 452 36,000  Level FlightAware ADS-B (CYYZ)
02:12PM 43.0828 -81.1107 212° Southwest 392 451 36,000  Level FlightAware ADS-B (CYYZ)
02:12PM 43.0724 -81.1196 212° Southwest 391 450 36,000  Level FlightAware ADS-B (CYKZ)
02:12PM 43.0361 -81.1490 211° Southwest 396 456 36,000  Level FlightAware ADS-B (CYYZ)
02:13PM 43.0612 -81.1291 30° Northeast 400 460 36,000  Level FlightAware ADS-B (CYKF)
02:13PM 42.9516 -81.2014 206° Southwest 399 459 36,000  Level FlightAware ADS-B (CYYZ)
02:13PM 42.9501 -81.2023 205° Southwest 398 458 36,000  Level FlightAware ADS-B (CYKZ)
02:14PM 42.9017 -81.2329 205° Southwest 399 459 36,000  Level FlightAware ADS-B (CYYZ)
02:14PM 42.8779 -81.2478 205° Southwest 398 458 36,000  Level FlightAware ADS-B (CYKZ)
02:14PM 42.8518 -81.2640 205° Southwest 399 459 36,000  Level FlightAware ADS-B (CYYZ)
02:15PM 42.8120 -81.2886 204° Southwest 399 459 36,000  Level FlightAware ADS-B (CYKZ)
02:15PM 42.8010 -81.2954 204° Southwest 400 460 36,000  Level FlightAware ADS-B (CYYZ)
02:15PM 42.7522 -81.3254 204° Southwest 399 459 36,000  Level FlightAware ADS-B (CYYZ)
02:15PM 42.7438 -81.3305 204° Southwest 398 458 36,000  Level FlightAware ADS-B (CYKZ)
02:16PM 42.7002 -81.3573 204° Southwest 398 458 36,000  Level FlightAware ADS-B (CYYZ)
02:16PM 42.6763 -81.3719 204° Southwest 397 457 36,000  Level FlightAware ADS-B (CYKZ)
02:16PM 42.6506 -81.3877 204° Southwest 398 458 36,000  Level FlightAware ADS-B (CYYZ)
02:17PM 42.6427 -81.3926 204° Southwest 397 457 36,000  Level FlightAware ADS-B (CYKZ)
02:17PM 42.6010 -81.4181 204° Southwest 398 458 36,000  Level FlightAware ADS-B (CYYZ)
02:17PM 42.5525 -81.4476 204° Southwest 397 457 36,000  Level FlightAware ADS-B (CYYZ)
02:17PM 42.5496 -81.4494 204° Southwest 396 456 36,000  Level FlightAware ADS-B (CYKZ)
02:18PM 42.5047 -81.4767 204° Southwest 398 458 36,000  Level FlightAware ADS-B (CYYZ)
02:18PM 42.4841 -81.4893 204° Southwest 397 457 36,000  Level FlightAware ADS-B (CYKZ)
02:18PM 42.4506 -81.5097 204° Southwest 398 458 36,000  Level FlightAware ADS-B (CYYZ)
02:19PM 42.4233 -81.5262 204° Southwest 398 458 36,000  Level FlightAware ADS-B (CYKZ)
02:19PM 42.4019 -81.5393 204° Southwest 399 459 36,000  Level FlightAware ADS-B (CYYZ)
02:19PM 42.3717 -81.5576 204° Southwest 399 459 36,000  Level FlightAware ADS-B (CYKZ)
02:19PM 42.3508 -81.5703 204° Southwest 401 461 36,000  Level FlightAware ADS-B (CYYZ)
02:20PM 42.3008 -81.6005 204° Southwest 402 463 36,000  Level FlightAware ADS-B (CYYZ)
02:20PM 42.3717 -81.5576 24° Northeast 401 461 36,000  Level FlightAware ADS-B (CYKZ)
02:21PM 42.2082 -81.6566 204° Southwest 401 461 36,000  Level FlightAware ADS-B (CYYZ)
02:22PM 42.0741 -81.7373 204° Southwest 401 461 36,000  Level FlightAware ADS-B (CYYZ)
02:24PM 41.9411 -81.8167 204° Southwest 397 457 36,000  Level Cleveland Center
02:25PM 41.8397 -81.8778 204° Southwest 397 457 36,000  Level Cleveland Center
02:26PM 41.7381 -81.9389 204° Southwest 397 457 36,000  Level Cleveland Center
02:27PM 41.6178 -82.0089 204° Southwest 400 460 36,000  Level Cleveland Center
02:28PM 41.5158 -82.0689 204° Southwest 400 460 36,000  Level Cleveland Center
02:29PM 41.4144 -82.1292 204° Southwest 400 460 36,000  Level Cleveland Center
02:30PM 41.3094 -82.1797 200° South 400 460 36,000  Level Cleveland Center
02:31PM 41.1978 -82.2189 195° South 409 471 36,000  Level Cleveland Center
02:32PM 41.0881 -82.2592 195° South 409 471 36,000  Level Cleveland Center
02:33PM 40.9594 -82.3056 195° South 409 471 36,000  Level Cleveland Center
02:34PM 40.8472 -82.3450 195° South 410 472 36,000  Level Cleveland Center
02:34PM 40.7911 -82.3636 194° South 411 473 36,000  Level Indianapolis Center
02:35PM 40.6794 -82.4036 195° South 411 473 36,000  Level Indianapolis Center
02:41PM 39.9903 -82.5990 195° South 433 498 36,000  Level FlightAware ADS-B (KPMH)
02:42PM 39.9256 -82.6038 183° South 433 498 36,000  Level FlightAware ADS-B (KPMH)
02:43PM 39.8514 -82.6088 183° South 433 498 36,000  Level FlightAware ADS-B (KPMH)
02:43PM 39.7700 -82.6143 183° South 432 497 36,000  Level FlightAware ADS-B (KPMH)
02:44PM 39.6847 -82.6201 183° South 431 496 36,000  Level FlightAware ADS-B (KPMH)
02:44PM 39.6309 -82.6237 183° South 431 496 36,000  Level FlightAware ADS-B (KPMH)
02:45PM 39.5690 -82.6279 183° South 431 496 36,000  Level FlightAware ADS-B (KPMH)
02:45PM 39.4969 -82.6327 183° South 431 496 36,000  Level FlightAware ADS-B (KPMH)
02:46PM 39.4209 -82.6378 183° South 431 496 36,000  Level FlightAware ADS-B (KPMH)
02:47PM 39.3500 -82.6425 183° South 432 497 36,000  Level FlightAware ADS-B (KPMH)
02:47PM 39.2761 -82.6475 183° South 433 498 36,000  Level FlightAware ADS-B (KPMH)
02:48PM 39.1987 -82.6527 183° South 435 501 36,000  Level FlightAware ADS-B (KPMH)
02:49PM 39.1384 -82.6567 183° South 435 501 36,000  Level FlightAware ADS-B (KPMH)
02:49PM 39.0371 -82.6633 183° South 437 503 36,000  Level FlightAware ADS-B (KPMH)
02:50PM 38.9610 -82.6683 183° South 437 503 36,000  Level FlightAware ADS-B (KPMH)
02:51PM 38.8811 -82.6736 183° South 436 502 36,000  Level FlightAware ADS-B (KPMH)
02:51PM 38.8014 -82.6788 183° South 435 501 36,000  Level FlightAware ADS-B (KPMH)
02:52PM 38.7409 -82.6828 183° South 436 502 36,000  Level FlightAware ADS-B (KPMH)
02:52PM 38.6789 -82.6869 183° South 438 504 36,000  Level FlightAware ADS-B (KPMH)
02:53PM 38.6111 -82.6928 183° South 432 497 36,000  Level Indianapolis Center
02:54PM 38.4689 -82.7025 183° South 434 499 36,000  Level Indianapolis Center
02:55PM 38.3467 -82.7092 182° South 436 502 36,000  Level Indianapolis Center
02:56PM 38.2247 -82.7181 183° South 436 502 36,000  Level Indianapolis Center
02:57PM 38.1036 -82.7258 183° South 436 502 36,000  Level Indianapolis Center
02:58PM 37.9819 -82.7350 183° South 436 502 36,000  Level Indianapolis Center
02:59PM 37.8394 -82.7419 182° South 436 502 36,000  Level Indianapolis Center
03:00PM 37.7183 -82.7539 184° South 436 502 36,000  Level Indianapolis Center
03:01PM 37.6058 -82.7992 198° South 427 491 36,000  Level Indianapolis Center
03:02PM 37.5044 -82.8667 208° Southwest 414 476 36,000  Level Indianapolis Center
03:03PM 37.4022 -82.9344 208° Southwest 413 475 36,000  Level Indianapolis Center
03:04PM 37.2997 -83.0011 207° Southwest 413 475 36,000  Level Indianapolis Center
03:05PM 37.1825 -83.0781 208° Southwest 413 475 36,000  Level Indianapolis Center
03:06PM 37.0822 -83.1436 208° Southwest 412 474 36,000  Level Indianapolis Center
03:08PM 36.9814 -83.2086 207° Southwest 412 474 36,000  Level Indianapolis Center
03:09PM 36.8803 -83.2742 207° Southwest 412 474 36,000  Level Indianapolis Center
03:10PM 36.7622 -83.3494 207° Southwest 412 474 36,000  Level Indianapolis Center
03:11PM 36.6606 -83.4142 207° Southwest 412 474 36,000  Level Indianapolis Center
03:12PM 36.5586 -83.4789 207° Southwest 412 474 36,000  Level Indianapolis Center
03:13PM 36.4483 -83.5500 207° Southwest 411 473 36,000  Level Indianapolis Center
03:14PM 36.3469 -83.6147 207° Southwest 411 473 36,000  Level Indianapolis Center
03:15PM 36.2444 -83.6794 207° Southwest 411 473 36,000  Level Indianapolis Center
03:16PM 36.1414 -83.7439 207° Southwest 412 474 36,000  Level Indianapolis Center
03:17PM 36.0622 -83.8000 210° Southwest 412 474 36,000  Level Atlanta Center
03:18PM 35.9581 -83.8617 206° Southwest 412 474 36,000  Level Atlanta Center
03:19PM 35.8475 -83.9056 198° South 418 481 36,000  Level Atlanta Center
03:24PM 35.1902 -84.0677 198° South 425 489 36,000  Level FlightAware ADS-B (KDZJ)
03:25PM 35.1134 -84.0861 191° South 425 489 36,000  Level FlightAware ADS-B (KDZJ)
03:25PM 35.0401 -84.1036 191° South 423 487 36,000  Level FlightAware ADS-B (KDZJ)
03:26PM 34.9574 -84.1234 191° South 423 487 36,000  Level FlightAware ADS-B (KDZJ)
03:27PM 34.8758 -84.1428 191° South 424 488 36,000  Level FlightAware ADS-B (KDZJ)
03:27PM 34.7998 -84.1609 191° South 426 490 36,000  Level FlightAware ADS-B (KDZJ)
03:28PM 34.7235 -84.1790 191° South 427 491 36,000  Level FlightAware ADS-B (KDZJ)
03:29PM 34.6392 -84.1990 191° South 430 495 36,000  Level FlightAware ADS-B (KDZJ)
03:29PM 34.5609 -84.2175 191° South 430 495 36,000  Level FlightAware ADS-B (KDZJ)
03:30PM 34.4799 -84.2366 191° South 430 495 36,000  Level FlightAware ADS-B (KDZJ)
03:31PM 34.4017 -84.2551 191° South 439 505 36,000 180 Level FlightAware ADS-B (KDZJ)
03:31PM 34.3206 -84.2741 191° South 440 506 36,300 480 Climbing FlightAware ADS-B (KDZJ)
03:32PM 34.2410 -84.2928 191° South 442 509 36,700 480 Climbing FlightAware ADS-B (KDZJ)
03:33PM 34.1608 -84.3115 191° South 440 506 37,000 180 Climbing FlightAware ADS-B (KDZJ)
03:33PM 34.0801 -84.3304 191° South 441 507 37,000  Level FlightAware ADS-B (KDZJ)
03:34PM 33.9992 -84.3492 191° South 441 507 37,000  Level FlightAware ADS-B (KDZJ)
03:35PM 33.9351 -84.3641 191° South 441 507 37,000  Level FlightAware ADS-B (KDZJ)
03:36PM 33.8314 -84.3914 191° South 448 516 37,000  Level Atlanta Center
03:37PM 33.7122 -84.4183 191° South 448 516 37,000  Level Atlanta Center
03:38PM 33.5744 -84.4378 187° South 448 516 37,000  Level Atlanta Center
03:39PM 33.4617 -84.4347 179° South 448 516 37,000  Level Atlanta Center
03:40PM 33.3364 -84.4342 180° South 448 516 37,000  Level Atlanta Center
03:41PM 33.2114 -84.4311 179° South 453 521 37,000  Level Atlanta Center
03:42PM 33.0839 -84.4306 180° South 458 527 37,000  Level Atlanta Center
03:43PM 32.9586 -84.4250 178° South 458 527 37,000  Level Atlanta Center
03:44PM 32.8336 -84.4244 180° South 458 527 37,000  Level Atlanta Center
03:45PM 32.7061 -84.4189 178° South 458 527 37,000  Level Atlanta Center
03:46PM 32.5789 -84.4161 179° South 458 527 37,000  Level Atlanta Center
03:47PM 32.4536 -84.4131 179° South 458 527 37,000  Level Atlanta Center
03:48PM 32.3367 -84.4100 179° South 464 534 37,000  Level Atlanta Center
03:49PM 32.1822 -84.4094 180° South 464 534 37,000  Level Atlanta Center
03:53PM 31.6650 -84.3961 179° South 461 531 37,000  Level Jacksonville Center
03:58PM 30.9718 -84.3821 179° South 462 532 37,000  Level FlightAware ADS-B (KTLH)
03:59PM 30.8991 -84.3807 179° South 464 534 37,000  Level FlightAware ADS-B (KTLH)
03:59PM 30.8225 -84.3792 179° South 465 535 37,000  Level FlightAware ADS-B (KTLH)
04:00PM 30.7296 -84.3775 179° South 465 535 37,000  Level FlightAware ADS-B (KTLH)
04:01PM 30.6425 -84.3700 176° South 472 543 37,000  Level FlightAware ADS-B (KTLH)
04:01PM 30.5874 -84.3581 169° South 476 548 37,000  Level FlightAware ADS-B (KTLH)
04:02PM 30.5137 -84.3330 164° South 480 552 37,000  Level FlightAware ADS-B (KTLH)
04:02PM 30.4505 -84.3024 157° South 482 555 37,000  Level FlightAware ADS-B (KTLH)
04:03PM 30.3823 -84.2595 151° Southeast 485 558 37,000  Level FlightAware ADS-B (KTLH)
04:03PM 30.3129 -84.2143 151° Southeast 484 557 37,000  Level FlightAware ADS-B (KTLH)
04:04PM 30.2418 -84.1680 151° Southeast 484 557 37,000  Level FlightAware ADS-B (KTLH)
04:04PM 30.1785 -84.1268 151° Southeast 485 558 37,000  Level FlightAware ADS-B (KTLH)
04:05PM 30.0968 -84.0735 151° Southeast 487 560 37,000  Level FlightAware ADS-B (KTLH)
04:06PM 30.0209 -84.0243 151° Southeast 488 562 37,000  Level FlightAware ADS-B (KTLH)
04:06PM 29.9683 -83.9902 151° Southeast 489 563 37,000 -180 Level FlightAware ADS-B (KTLH)
04:07PM 29.8119 -83.8889 151° Southeast 496 571 36,700 -420 Descending FlightAware ADS-B (KTLH)
04:09PM 29.6911 -83.8156 151° Southeast 483 556 36,100 -600 Descending Jacksonville Center
04:10PM 29.5728 -83.7378 150° Southeast 483 556 35,500 -600 Descending Jacksonville Center
04:11PM 29.4542 -83.6606 150° Southeast 483 556 35,000 -300 Descending Jacksonville Center
04:12PM 29.3336 -83.5858 152° Southeast 483 556 35,000  Level Jacksonville Center
04:13PM 29.2128 -83.5183 154° Southeast 483 556 35,000  Level Jacksonville Center
04:14PM 29.0919 -83.4511 154° Southeast 483 556 35,000  Level Jacksonville Center
04:15PM 28.9692 -83.3814 154° Southeast 489 563 35,000  Level Jacksonville Center
04:16PM 28.8483 -83.3122 153° Southeast 489 563 35,000  Level Jacksonville Center
04:21PM 28.1947 -82.9489 153° Southeast 491 565 35,000  Level FlightAware ADS-B (KMCO)
04:25PM 27.6719 -82.6631 154° Southeast 492 566 35,000  Level FlightAware ADS-B (KMCO)
04:26PM 27.6104 -82.6299 154° Southeast 492 566 35,000  Level FlightAware ADS-B (KMCO)
04:28PM 27.2788 -82.4517 154° Southeast 492 566 35,000  Level FlightAware ADS-B (KMCO)
04:29PM 27.1683 -82.3925 155° Southeast 492 566 35,000  Level FlightAware ADS-B (KMCO)
04:30PM 27.0382 -82.3230 155° Southeast 493 567 35,000  Level FlightAware ADS-B (KMCO)
04:31PM 26.9704 -82.2869 155° Southeast 493 567 35,000  Level FlightAware ADS-B (KMCO)
04:31PM 26.8919 -82.2451 155° Southeast 492 566 35,000  Level FlightAware ADS-B (KMCO)
04:33PM 26.7221 -82.1549 155° Southeast 493 567 35,000  Level FlightAware ADS-B (KMCO)
04:33PM 26.6582 -82.1211 155° Southeast 494 568 35,000  Level FlightAware ADS-B (KMCO)
04:34PM 26.6070 -82.0939 155° Southeast 495 570 35,000  Level FlightAware ADS-B (KMCO)
04:34PM 26.5342 -82.0555 155° Southeast 495 570 35,000  Level FlightAware ADS-B (KMCO)
04:35PM 26.4524 -82.0123 155° Southeast 495 570 35,000  Level FlightAware ADS-B (KMCO)
04:35PM 26.3896 -81.9793 155° Southeast 495 570 35,000  Level FlightAware ADS-B (KMCO)
04:36PM 26.3269 -81.9463 155° Southeast 494 568 35,000  Level FlightAware ADS-B (KMCO)
04:37PM 26.2450 -81.9033 155° Southeast 496 571 35,000  Level FlightAware ADS-B (KMCO)
04:37PM 26.1820 -81.8702 155° Southeast 498 573 35,000  Level FlightAware ADS-B (KMCO)
04:38PM 26.1187 -81.8371 155° Southeast 498 573 35,000  Level FlightAware ADS-B (KMCO)
04:38PM 26.0133 -81.7819 155° Southeast 498 573 35,000  Level FlightAware ADS-B (KMCO)
04:40PM 25.8911 -81.7200 155° Southeast 498 573 35,000  Level Miami Center
04:41PM 25.7658 -81.6528 154° Southeast 504 580 35,000 -300 Level Miami Center
04:42PM 25.6361 -81.5947 158° South 504 580 34,500 -600 Descending Miami Center
04:43PM 25.5014 -81.5639 168° South 494 568 33,900 -600 Descending Miami Center
04:44PM 25.3678 -81.5633 180° South 489 563 33,300 -600 Descending Miami Center
04:45PM 25.2333 -81.5928 191° South 485 558 32,700 -600 Descending Miami Center
04:46PM 25.0983 -81.6286 194° South 490 564 32,100 -600 Descending Miami Center
04:47PM 24.9719 -81.6672 195° South 483 556 31,500 -660 Descending Miami Center
04:48PM 24.8453 -81.7036 195° South 483 556 30,800 -840 Descending Miami Center
04:49PM 24.7189 -81.7419 195° South 476 548 29,900 -900 Descending Miami Center
04:50PM 24.5850 -81.8122 206° Southwest 481 554 29,000 -720 Descending Miami Center
04:51PM 24.4911 -81.8722 210° Southwest 471 542 28,500 -600 Descending Miami Center
04:52PM 24.4083 -81.9717 228° Southwest 446 513 27,900 -600 Descending Miami Center
04:53PM 24.3336 -82.0756 232° Southwest 440 506 27,300 -720 Descending Miami Center
04:54PM 24.2528 -82.1792 229° Southwest 445 512 26,500 -900 Descending Miami Center
04:55PM 24.1783 -82.2786 231° Southwest 445 512 25,500 -1,560 Descending Miami Center
04:56PM 24.1014 -82.3797 230° Southwest 440 506 23,400 -2,400 Descending Miami Center
04:57PM 24.0222 -82.4853 231° Southwest 429 494 20,800 -2,640 Descending Miami Center
04:59PM 23.8120 -82.4898 173° South  Level FlightAware Approximate
05:06PM 22.9891 -82.4091 180° South  Level Estimated
05:07PM 22.9891 -82.4091 180° South  Level Estimated
05:08PM 22.9891 -82.4091 180° South  Level Estimated
05:09PM 22.9891 -82.4091 180° South  Level Estimated
05:10PM 22.9891 -82.4091 180° South  Level Estimated
05:11PM 22.9891 -82.4091 180° South  Level Estimated
05:12PM 22.9891 -82.4091 180° South  Level Estimated
05:13PM 22.9891 -82.4091 180° South  Level Estimated
05:14PM 22.9891 -82.4091 180° South  Level Estimated
05:15PM 22.9891 -82.4091 180° South  Level Estimated
05:16PM 22.9891 -82.4091 180° South  Level Estimated
05:17PM 22.9891 -82.4091 180° South  Level Estimated
05:18PM 22.9891 -82.4091 180° South  Level Estimated
05:19PM 22.9891 -82.4091 180° South  Level Estimated
05:20PM 22.9891 -82.4091 180° South  Level Estimated
05:21PM 22.9891 -82.4091 180° South  Level Estimated
05:22PM 22.9891 -82.4091 180° South  Level Estimated
05:23PM 22.9891 -82.4091 180° South  Level Estimated
05:24PM 22.9891 -82.4091 180° South  Level Estimated
05:25PM 22.9891 -82.4091 180° South  Level Estimated
05:26PM 22.9891 -82.4091 180° South  Level Estimated
05:27PM 22.9891 -82.4091 180° South  Level Estimated
05:28PM 22.9891 -82.4091 180° South  Level Estimated
05:29PM 22.9891 -82.4091 180° South  Level Estimated